Terminal Aerodrome Forecast
Issued by NWS Grand Forks, ND

Home | Current Version | Previous Version | Graphics & Text | Print | Product List | Glossary On
Versions: 1 2 3 4 5 6 7 8 9 10 11 12 13 14 15 16 17 18 19 20
757
FTUS43 KFGF 202323
TAFGFK
TAF
KGFK 202323Z 2100/2124 28017G25KT P6SM FEW200
     FM210100 34017G27KT P6SM SCT050
     FM210900 35015KT P6SM FEW200=

USA.gov is the U.S. government's official web portal to all federal, state and local government web resources and services.